Time;durP1;ratioP1;P1;durP2;ratioP2;P2;SDS_P1;SDS_P2;PMS_P1;PMS_P2;Temp;Humidity;BMP_temperature;BMP_pressure;BME280_temperature;BME280_humidity;BME280_pressure;Samples;Min_cycle;Max_cycle;Signal;HPM_P1;HPM_P2
2020/12/05 00:00:29;;;;;;;22.92;12.40;;;;;;;3.82;78.08;93775.41;5068326;28;20493;-69
2020/12/05 00:02:54;;;;;;;25.52;13.30;;;;;;;3.80;78.03;93765.13;5068116;28;20064;-69
2020/12/05 00:05:19;;;;;;;23.42;11.75;;;;;;;3.82;78.41;93772.78;5068324;28;20029;-70
2020/12/05 00:07:45;;;;;;;23.70;11.73;;;;;;;3.79;78.57;93782.03;5069467;28;20028;-70
2020/12/05 00:10:10;;;;;;;23.70;11.63;;;;;;;3.76;79.16;93784.41;5054827;28;20021;-70
2020/12/05 00:12:36;;;;;;;27.10;11.95;;;;;;;3.75;78.94;93773.06;5049608;28;20083;-70
2020/12/05 00:15:02;;;;;;;23.48;11.82;;;;;;;3.74;78.95;93783.88;5049160;28;20025;-67
2020/12/05 00:17:28;;;;;;;20.55;10.63;;;;;;;3.81;78.99;93787.81;5056603;28;20371;-76
2020/12/05 00:19:53;;;;;;;25.80;11.93;;;;;;;3.94;78.78;93794.31;5065462;28;20024;-77
2020/12/05 00:22:19;;;;;;;21.42;11.30;;;;;;;4.03;78.44;93797.19;5065738;28;20095;-79
2020/12/05 00:24:44;;;;;;;22.63;11.93;;;;;;;4.10;78.16;93794.25;5048345;28;20033;-79
2020/12/05 00:27:10;;;;;;;24.80;11.57;;;;;;;4.20;77.78;93791.53;5049270;28;20025;-76
2020/12/05 00:29:35;;;;;;;22.73;11.82;;;;;;;4.29;77.81;93800.44;5049341;28;20025;-77
2020/12/05 00:32:01;;;;;;;26.23;13.13;;;;;;;4.37;77.46;93801.69;5064337;28;20036;-77
2020/12/05 00:34:26;;;;;;;23.60;13.63;;;;;;;4.48;76.24;93799.75;5072961;28;20033;-77
2020/12/05 00:36:52;;;;;;;26.52;14.43;;;;;;;4.55;75.39;93803.66;5057067;28;20033;-77
2020/12/05 00:39:18;;;;;;;29.25;14.85;;;;;;;4.59;74.46;93794.13;5052994;28;20021;-76
2020/12/05 00:41:43;;;;;;;28.42;14.48;;;;;;;4.68;74.09;93793.53;5054568;28;20025;-77
2020/12/05 00:44:09;;;;;;;30.52;13.98;;;;;;;4.72;73.71;93808.56;5052832;28;20024;-77
2020/12/05 00:46:34;;;;;;;36.40;17.05;;;;;;;4.78;71.73;93814.56;5052939;28;20025;-77
2020/12/05 00:49:00;;;;;;;38.85;16.85;;;;;;;4.80;71.77;93817.72;5051906;28;20039;-76
2020/12/05 00:51:25;;;;;;;35.35;17.15;;;;;;;4.73;72.71;93828.63;5072485;28;20040;-77
2020/12/05 00:53:51;;;;;;;38.97;17.20;;;;;;;4.70;72.29;93833.66;5072995;28;20066;-75
2020/12/05 00:56:22;;;;;;;29.13;14.30;;;;;;;4.73;72.51;93817.28;5072440;28;20020;-75
2020/12/05 00:58:48;;;;;;;25.77;13.15;;;;;;;4.78;73.10;93825.94;5071471;28;20392;-76
2020/12/05 01:01:14;;;;;;;28.80;14.68;;;;;;;4.67;72.80;93818.38;5070900;28;20028;-75
2020/12/05 01:03:41;;;;;;;31.88;15.88;;;;;;;4.69;72.72;93818.88;5072633;28;20020;-75
2020/12/05 01:06:11;;;;;;;33.33;14.77;;;;;;;4.73;72.99;93820.69;5057735;28;20040;-76
2020/12/05 01:08:40;;;;;;;31.50;15.95;;;;;;;4.72;72.58;93820.97;5050327;28;20057;-75
2020/12/05 01:11:09;;;;;;;26.48;14.40;;;;;;;4.76;71.88;93820.16;5067167;28;20056;-76
2020/12/05 01:13:34;;;;;;;26.63;14.27;;;;;;;4.79;71.87;93816.16;5052253;28;20404;-76
2020/12/05 01:16:00;;;;;;;24.60;13.25;;;;;;;4.85;71.26;93815.06;5052358;28;20063;-76
2020/12/05 01:18:25;;;;;;;22.73;12.57;;;;;;;4.81;71.44;93822.72;5050956;28;20052;-75
2020/12/05 01:20:51;;;;;;;21.50;11.45;;;;;;;4.83;72.41;93822.47;5051198;28;20077;-75
2020/12/05 01:23:16;;;;;;;22.85;11.18;;;;;;;4.80;72.64;93812.44;5052488;28;20029;-75
2020/12/05 01:25:41;;;;;;;20.65;10.90;;;;;;;4.79;72.66;93813.53;5050900;28;20104;-73
2020/12/05 01:28:07;;;;;;;21.13;11.40;;;;;;;4.79;71.66;93816.16;5052167;28;20163;-74
2020/12/05 01:30:32;;;;;;;19.80;11.20;;;;;;;4.68;71.68;93820.75;5051863;28;20437;-74
2020/12/05 01:32:58;;;;;;;23.30;12.20;;;;;;;4.62;72.11;93817.34;5050999;28;20055;-74
2020/12/05 01:35:23;;;;;;;26.98;12.50;;;;;;;4.60;72.17;93822.13;5052107;28;20473;-73
2020/12/05 01:37:49;;;;;;;20.50;10.60;;;;;;;4.53;72.79;93821.63;5052157;28;20078;-73
2020/12/05 01:40:14;;;;;;;18.27;11.65;;;;;;;4.55;71.63;93814.22;5052119;28;20021;-73
2020/12/05 01:42:39;;;;;;;21.08;12.05;;;;;;;4.53;71.47;93821.63;5052242;28;20037;-74
2020/12/05 01:45:05;;;;;;;19.42;10.65;;;;;;;4.49;71.61;93823.25;5050548;28;20025;-73
2020/12/05 01:47:30;;;;;;;18.80;11.38;;;;;;;4.47;71.77;93825.38;5052157;28;20384;-74
2020/12/05 01:49:58;;;;;;;22.13;12.35;;;;;;;4.45;71.73;93822.22;5051941;28;20033;-73
2020/12/05 01:52:23;;;;;;;19.35;10.82;;;;;;;4.35;71.97;93832.84;5060402;28;20037;-77
2020/12/05 01:54:50;;;;;;;19.77;9.70;;;;;;;4.32;72.54;93822.84;5060121;28;20036;-77
2020/12/05 01:57:17;;;;;;;22.15;11.25;;;;;;;4.36;72.33;93818.59;5070349;28;20447;-77
2020/12/05 01:59:42;;;;;;;23.08;10.68;;;;;;;4.32;72.47;93826.28;5071893;28;20464;-77
2020/12/05 02:02:08;;;;;;;22.17;11.38;;;;;;;4.34;72.51;93820.72;5070509;28;20031;-76
2020/12/05 02:04:41;;;;;;;21.98;11.60;;;;;;;4.32;72.33;93815.72;5071620;28;20425;-77
2020/12/05 02:07:28;;;;;;;26.60;12.40;;;;;;;4.32;72.25;93822.84;5053296;28;20103;-77
2020/12/05 02:09:56;;;;;;;19.65;10.48;;;;;;;4.29;72.51;93821.53;5051703;28;20373;-77
2020/12/05 02:12:26;;;;;;;24.73;12.68;;;;;;;4.28;72.81;93811.28;5063386;28;20029;-77
2020/12/05 02:14:59;;;;;;;23.50;12.50;;;;;;;4.29;72.99;93810.19;5071468;28;20509;-77
2020/12/05 02:17:25;;;;;;;25.52;13.50;;;;;;;4.32;72.99;93814.94;5071520;28;20419;-77
2020/12/05 02:19:55;;;;;;;29.20;14.48;;;;;;;4.30;73.47;93809.94;5063194;28;20025;-77
2020/12/05 02:22:35;;;;;;;27.67;14.27;;;;;;;4.35;73.49;93817.81;5051489;28;20035;-77
2020/12/05 02:25:01;;;;;;;27.23;12.73;;;;;;;4.38;72.68;93812.00;5051339;28;20112;-77
2020/12/05 02:27:33;;;;;;;29.38;14.70;;;;;;;4.35;72.48;93801.97;5071057;28;20024;-77
2020/12/05 02:29:59;;;;;;;26.67;13.82;;;;;;;4.36;72.49;93806.19;5069995;28;20048;-74
2020/12/05 02:32:25;;;;;;;26.23;13.50;;;;;;;4.38;72.67;93798.78;5071119;28;20063;-73
2020/12/05 02:34:50;;;;;;;21.35;12.38;;;;;;;4.39;73.25;93799.56;5071039;28;20020;-74
2020/12/05 02:37:22;;;;;;;27.20;13.13;;;;;;;4.40;73.70;93801.16;5062807;28;20036;-78
2020/12/05 02:39:49;;;;;;;26.00;12.43;;;;;;;4.44;73.80;93810.09;5051131;28;20060;-77
2020/12/05 02:42:15;;;;;;;25.50;13.02;;;;;;;4.49;73.66;93817.19;5050937;28;20267;-77
2020/12/05 02:44:52;;;;;;;21.55;11.85;;;;;;;4.37;73.52;93804.34;5051217;28;20025;-77
2020/12/05 02:47:18;;;;;;;30.65;13.27;;;;;;;4.41;73.16;93813.28;5050726;28;20021;-78
2020/12/05 02:49:45;;;;;;;22.58;12.25;;;;;;;4.40;73.30;93814.34;5056830;28;20111;-77
2020/12/05 02:52:10;;;;;;;25.13;12.43;;;;;;;4.41;72.88;93805.38;5063639;28;20415;-78
2020/12/05 02:54:36;;;;;;;24.95;13.10;;;;;;;4.40;72.99;93809.06;5069320;28;20020;-77
2020/12/05 02:57:03;;;;;;;24.05;12.35;;;;;;;4.42;72.45;93812.22;5069985;28;20445;-77
2020/12/05 02:59:29;;;;;;;22.85;12.70;;;;;;;4.47;72.73;93808.75;5070619;28;20039;-78
2020/12/05 03:01:55;;;;;;;25.67;13.15;;;;;;;4.48;72.85;93811.13;5070431;28;20027;-77
2020/12/05 03:04:21;;;;;;;25.48;13.07;;;;;;;4.47;72.57;93801.63;5070521;28;20055;-78
2020/12/05 03:06:47;;;;;;;23.20;12.10;;;;;;;4.52;73.72;93806.06;5070471;28;20052;-77
2020/12/05 03:09:13;;;;;;;26.10;13.18;;;;;;;4.57;74.05;93812.09;5064916;28;20082;-77
2020/12/05 03:11:39;;;;;;;22.52;12.55;;;;;;;4.58;74.08;93816.34;5058039;28;20123;-77
2020/12/05 03:14:05;;;;;;;23.98;11.88;;;;;;;4.63;73.98;93804.94;5070231;28;20103;-77
2020/12/05 03:16:30;;;;;;;21.75;12.90;;;;;;;4.67;73.71;93807.81;5059360;28;20087;-78
2020/12/05 03:18:56;;;;;;;22.73;11.55;;;;;;;4.68;73.33;93804.91;5062681;28;20032;-77
2020/12/05 03:21:21;;;;;;;26.20;12.35;;;;;;;4.71;73.00;93799.06;5066588;28;20025;-77
2020/12/05 03:23:47;;;;;;;24.23;13.00;;;;;;;4.72;72.31;93810.41;5054718;28;20028;-76
2020/12/05 03:26:13;;;;;;;26.40;13.93;;;;;;;4.76;72.43;93800.84;5050237;28;20017;-76
2020/12/05 03:28:39;;;;;;;30.75;13.07;;;;;;;4.76;72.86;93809.59;5050191;28;20476;-76
2020/12/05 03:31:04;;;;;;;25.67;11.43;;;;;;;4.74;72.78;93817.00;5048624;28;20031;-76
2020/12/05 03:33:31;;;;;;;23.25;11.57;;;;;;;4.72;73.07;93829.69;5050120;28;20564;-76
2020/12/05 03:35:57;;;;;;;30.85;13.80;;;;;;;4.69;73.32;93827.59;5048744;28;20400;-76
2020/12/05 03:38:22;;;;;;;26.92;14.15;;;;;;;4.73;74.14;93825.19;5049977;28;20025;-76
2020/12/05 03:40:48;;;;;;;27.00;13.25;;;;;;;4.75;74.09;93831.75;5050384;28;20039;-77
2020/12/05 03:43:13;;;;;;;26.50;13.15;;;;;;;4.78;73.35;93833.88;5050041;28;20060;-76
2020/12/05 03:45:39;;;;;;;28.67;13.85;;;;;;;4.73;72.72;93833.91;5067265;28;20063;-77
2020/12/05 03:48:04;;;;;;;25.83;13.38;;;;;;;4.71;72.75;93830.75;5070042;28;20021;-76
2020/12/05 03:50:29;;;;;;;24.77;13.80;;;;;;;4.74;73.19;93835.47;5070032;28;20071;-77
2020/12/05 03:52:55;;;;;;;26.25;11.77;;;;;;;4.81;73.28;93840.44;5070057;28;20392;-76
2020/12/05 03:55:21;;;;;;;21.52;12.30;;;;;;;4.83;73.21;93835.66;5069861;28;20488;-80
2020/12/05 03:57:46;;;;;;;23.77;13.23;;;;;;;4.82;73.12;93839.34;5065783;28;20017;-80
2020/12/05 04:00:13;;;;;;;20.38;10.88;;;;;;;4.83;73.26;93844.38;5070315;28;20522;-80
2020/12/05 04:02:38;;;;;;;25.35;11.32;;;;;;;4.85;73.06;93844.09;5057956;28;20028;-79
2020/12/05 04:05:03;;;;;;;19.63;10.63;;;;;;;4.83;72.85;93839.09;5048647;28;20024;-80
2020/12/05 04:07:29;;;;;;;20.27;11.27;;;;;;;4.80;72.45;93833.56;5049003;28;20116;-78
2020/12/05 04:09:55;;;;;;;21.00;10.65;;;;;;;4.80;71.98;93833.56;5063550;28;20039;-79
2020/12/05 04:12:20;;;;;;;18.90;10.20;;;;;;;4.72;72.38;93840.25;5069528;28;20400;-80
2020/12/05 04:14:46;;;;;;;20.40;11.23;;;;;;;4.71;71.83;93832.59;5073587;28;20033;-79
2020/12/05 04:17:11;;;;;;;19.65;11.05;;;;;;;4.69;71.97;93848.72;5066743;28;20081;-78
2020/12/05 04:19:36;;;;;;;22.45;11.27;;;;;;;4.65;71.69;93855.59;5057618;28;20125;-77
2020/12/05 04:22:02;;;;;;;21.15;10.85;;;;;;;4.60;71.85;93856.44;5061997;28;20025;-77
2020/12/05 04:24:27;;;;;;;24.45;11.55;;;;;;;4.60;72.03;93859.09;5052456;28;20060;-78
2020/12/05 04:26:53;;;;;;;21.33;12.45;;;;;;;4.58;71.80;93863.84;5063201;28;20017;-77
2020/12/05 04:29:18;;;;;;;21.90;11.55;;;;;;;4.53;72.02;93849.88;5064487;28;20055;-77
2020/12/05 04:31:44;;;;;;;23.85;10.75;;;;;;;4.54;72.02;93849.63;5052076;28;20136;-77
2020/12/05 04:34:09;;;;;;;21.60;9.75;;;;;;;4.48;71.61;93842.00;5052243;28;20059;-79
2020/12/05 04:36:35;;;;;;;23.02;10.82;;;;;;;4.46;71.74;93849.41;5058991;28;20052;-80
2020/12/05 04:39:00;;;;;;;27.52;13.10;;;;;;;4.43;71.93;93861.28;5069955;28;20029;-79
2020/12/05 04:41:26;;;;;;;25.70;12.18;;;;;;;4.42;72.39;93851.81;5058769;28;20027;-76
2020/12/05 04:43:52;;;;;;;28.17;13.77;;;;;;;4.43;72.54;93861.28;5071782;28;20029;-74
2020/12/05 04:46:19;;;;;;;20.60;11.07;;;;;;;4.41;73.03;93853.66;5067890;28;20480;-74
2020/12/05 04:48:47;;;;;;;24.88;12.38;;;;;;;4.43;73.78;93861.28;5053335;28;20085;-75
2020/12/05 04:51:17;;;;;;;21.88;11.38;;;;;;;4.49;73.77;93862.06;5052921;28;20057;-75
2020/12/05 04:53:47;;;;;;;22.33;11.15;;;;;;;4.51;73.62;93857.28;5053230;28;20056;-75
2020/12/05 04:56:16;;;;;;;21.58;11.48;;;;;;;4.52;73.45;93862.31;5052780;28;20033;-75
2020/12/05 04:59:02;;;;;;;25.25;12.23;;;;;;;4.54;73.62;93852.25;5052908;28;20064;-75
2020/12/05 05:01:32;;;;;;;24.85;13.05;;;;;;;4.57;73.90;93867.53;5051651;28;20016;-76
2020/12/05 05:03:57;;;;;;;27.33;13.73;;;;;;;4.58;73.86;93873.59;5052882;28;20029;-77
2020/12/05 05:06:23;;;;;;;23.67;12.55;;;;;;;4.57;74.37;93878.09;5051537;28;20032;-79
2020/12/05 05:08:48;;;;;;;24.05;11.88;;;;;;;4.61;74.80;93871.19;5067017;28;20075;-78
2020/12/05 05:11:18;;;;;;;21.27;11.30;;;;;;;4.69;74.80;93872.47;5072273;28;20024;-78
2020/12/05 05:13:57;;;;;;;22.30;12.13;;;;;;;4.75;74.92;93873.22;5058790;28;20536;-78
2020/12/05 05:16:26;;;;;;;21.27;11.18;;;;;;;4.78;74.77;93872.66;5052589;28;20120;-79
2020/12/05 05:18:51;;;;;;;22.98;11.82;;;;;;;4.83;74.37;93875.28;5052376;28;20028;-79
2020/12/05 05:21:40;;;;;;;22.52;11.70;;;;;;;4.87;73.91;93876.31;5051110;28;20381;-78
2020/12/05 05:24:17;;;;;;;23.20;11.18;;;;;;;4.91;73.77;93869.41;5060954;28;20028;-77
2020/12/05 05:26:44;;;;;;;19.52;10.68;;;;;;;4.95;73.23;93880.22;5071287;28;20480;-78
2020/12/05 05:29:27;;;;;;;23.20;12.07;;;;;;;4.97;73.40;93878.88;5072361;28;20131;-78
2020/12/05 05:32:00;;;;;;;20.13;10.93;;;;;;;5.00;73.48;93869.59;5058203;28;20031;-79
2020/12/05 05:34:25;;;;;;;32.83;16.08;;;;;;;5.00;73.15;93870.38;5069016;28;20028;-78
2020/12/05 05:36:51;;;;;;;38.30;17.08;;;;;;;5.01;72.63;93879.88;5056500;28;20021;-79
2020/12/05 05:39:18;;;;;;;35.80;16.88;;;;;;;4.99;72.45;93868.03;5070762;28;20016;-78
2020/12/05 05:41:49;;;;;;;27.88;12.90;;;;;;;4.98;72.18;93869.84;5072180;28;20025;-78
2020/12/05 05:44:20;;;;;;;25.00;13.15;;;;;;;4.98;72.08;93872.50;5053953;28;20025;-74
2020/12/05 05:46:48;;;;;;;21.73;12.70;;;;;;;4.96;73.06;93872.00;5052121;28;20060;-74
2020/12/05 05:49:31;;;;;;;20.50;11.07;;;;;;;4.93;73.18;93877.06;5052025;28;20400;-75
2020/12/05 05:52:01;;;;;;;18.38;10.50;;;;;;;4.90;74.11;93873.09;5047116;28;20045;-78
2020/12/05 05:54:36;;;;;;;22.73;11.55;;;;;;;4.83;74.31;93870.78;5051975;28;20040;-78
2020/12/05 05:57:13;;;;;;;21.05;10.73;;;;;;;4.83;74.38;93877.91;5050595;28;20024;-78
2020/12/05 05:59:40;;;;;;;19.58;11.23;;;;;;;4.87;73.81;93878.94;5050349;28;20041;-78
2020/12/05 06:02:08;;;;;;;18.55;10.93;;;;;;;4.91;73.56;93873.91;5051969;28;20029;-77
2020/12/05 06:04:41;;;;;;;20.10;11.05;;;;;;;4.89;73.87;93886.59;5050111;28;20039;-77
2020/12/05 06:07:10;;;;;;;19.23;10.05;;;;;;;4.88;73.61;93882.38;5050612;28;20032;-78
2020/12/05 06:09:42;;;;;;;23.70;12.65;;;;;;;4.91;73.74;93887.88;5069432;28;20028;-76
2020/12/05 06:12:11;;;;;;;21.17;11.93;;;;;;;4.93;72.76;93885.75;5071664;28;20098;-79
2020/12/05 06:14:40;;;;;;;28.70;14.18;;;;;;;4.88;73.14;93885.78;5064575;28;20042;-74
2020/12/05 06:17:07;;;;;;;22.48;13.40;;;;;;;4.92;73.06;93894.75;5070158;28;20028;-74
2020/12/05 06:19:33;;;;;;;24.90;13.80;;;;;;;4.95;72.99;93901.34;5071167;28;20502;-74
2020/12/05 06:21:59;;;;;;;23.83;13.20;;;;;;;4.94;72.68;93907.69;5065845;28;20543;-73
2020/12/05 06:24:47;;;;;;;24.55;13.50;;;;;;;4.96;72.96;93908.97;5051429;28;20029;-70
2020/12/05 06:27:14;;;;;;;21.30;11.98;;;;;;;4.99;73.05;93910.28;5051409;28;20013;-70
2020/12/05 06:29:40;;;;;;;18.52;10.93;;;;;;;5.04;73.97;93907.59;5050669;28;20048;-70
2020/12/05 06:32:06;;;;;;;23.75;12.02;;;;;;;5.13;74.08;93913.88;5050602;28;20036;-70
2020/12/05 06:34:41;;;;;;;19.58;11.45;;;;;;;5.20;73.95;93910.91;5049663;28;20033;-70
2020/12/05 06:37:30;;;;;;;19.90;10.48;;;;;;;5.26;73.85;93917.72;5050864;28;20033;-70
2020/12/05 06:40:04;;;;;;;18.77;10.07;;;;;;;5.30;73.40;93928.53;5054602;28;20020;-68
2020/12/05 06:42:41;;;;;;;20.17;10.07;;;;;;;5.35;73.70;93928.47;5057289;28;20028;-70
2020/12/05 06:45:07;;;;;;;17.75;10.30;;;;;;;5.44;73.53;93929.47;5054529;28;20058;-67
2020/12/05 06:47:33;;;;;;;14.73;9.35;;;;;;;5.53;73.23;93935.69;5069566;28;20032;-68
2020/12/05 06:49:59;;;;;;;17.67;9.77;;;;;;;5.61;73.50;93940.38;5069209;28;20472;-69
2020/12/05 06:52:25;;;;;;;16.88;10.00;;;;;;;5.65;73.40;93945.91;5066577;28;20531;-68
2020/12/05 06:55:07;;;;;;;19.60;10.85;;;;;;;5.73;73.38;93940.00;5048309;28;20123;-69
2020/12/05 06:57:35;;;;;;;16.45;9.63;;;;;;;5.78;73.13;93947.91;5047304;28;20094;-68
2020/12/05 07:00:21;;;;;;;21.05;9.52;;;;;;;5.85;73.38;93941.50;5048667;28;20090;-68
2020/12/05 07:02:54;;;;;;;17.75;10.52;;;;;;;5.88;73.51;93938.28;5049106;28;20071;-68
2020/12/05 07:05:19;;;;;;;19.42;10.38;;;;;;;5.97;73.27;93942.69;5047656;28;20040;-68
2020/12/05 07:08:23;;;;;;;20.63;11.15;;;;;;;6.07;72.71;93939.16;5061088;28;20414;-68
2020/12/05 07:10:54;;;;;;;20.70;10.02;;;;;;;6.16;72.38;93942.75;5044656;28;20194;-68
2020/12/05 07:13:25;;;;;;;21.30;10.95;;;;;;;6.20;72.17;93943.75;5070590;28;20028;-68
2020/12/05 07:15:51;;;;;;;25.85;11.13;;;;;;;6.29;72.00;93948.41;5069137;28;20098;-69
2020/12/05 07:18:19;;;;;;;24.48;10.80;;;;;;;6.36;71.75;93941.72;5069022;28;20021;-68
2020/12/05 07:20:46;;;;;;;22.85;11.45;;;;;;;6.43;71.68;93954.59;5070578;28;20055;-68
2020/12/05 07:23:11;;;;;;;15.88;9.27;;;;;;;6.52;71.41;93946.81;5070221;28;20030;-68
2020/12/05 07:25:37;;;;;;;21.20;11.05;;;;;;;6.66;71.32;93949.56;5070493;28;20439;-68
2020/12/05 07:28:02;;;;;;;18.88;9.07;;;;;;;6.77;70.78;93956.28;5070285;28;20036;-68
2020/12/05 07:30:28;;;;;;;17.85;10.68;;;;;;;6.87;70.53;93956.13;5070486;28;20016;-68
2020/12/05 07:32:53;;;;;;;20.70;11.88;;;;;;;6.93;70.88;93962.16;5070483;28;20086;-69
2020/12/05 07:35:19;;;;;;;18.65;11.13;;;;;;;7.00;70.49;93962.56;5068584;28;20035;-68
2020/12/05 07:37:45;;;;;;;22.83;14.00;;;;;;;7.12;70.05;93970.09;5069004;28;20506;-68
2020/12/05 07:40:12;;;;;;;27.63;15.40;;;;;;;7.17;69.96;93959.41;5068665;28;20476;-69
2020/12/05 07:42:42;;;;;;;23.58;13.77;;;;;;;7.19;70.90;93963.34;5069560;28;20029;-68
2020/12/05 07:45:07;;;;;;;28.05;13.82;;;;;;;7.18;70.16;93958.34;5071049;28;20028;-69
2020/12/05 07:47:33;;;;;;;19.05;11.10;;;;;;;7.23;69.56;93953.75;5068778;28;20031;-68
2020/12/05 07:50:02;;;;;;;24.15;12.75;;;;;;;7.29;69.54;93958.97;5070447;28;20142;-69
2020/12/05 07:52:28;;;;;;;22.90;11.98;;;;;;;7.38;69.15;93967.84;5068501;28;20098;-69
2020/12/05 07:54:56;;;;;;;22.70;11.98;;;;;;;7.49;69.02;93971.91;5070389;28;20091;-68
2020/12/05 07:57:29;;;;;;;24.92;13.90;;;;;;;7.50;69.10;93980.66;5068141;28;20078;-68
2020/12/05 08:00:08;;;;;;;24.35;13.20;;;;;;;7.53;69.03;93988.00;5051397;28;20045;-68
2020/12/05 08:02:33;;;;;;;24.55;12.90;;;;;;;7.57;68.63;93978.41;5048581;28;20025;-69
2020/12/05 08:05:08;;;;;;;22.27;11.95;;;;;;;7.63;68.24;93979.88;5050163;28;20025;-68
2020/12/05 08:07:37;;;;;;;19.73;11.13;;;;;;;7.68;68.05;93979.03;5048422;28;20013;-69
2020/12/05 08:10:08;;;;;;;18.48;10.93;;;;;;;7.72;67.99;93980.03;5048628;28;20132;-68
2020/12/05 08:12:52;;;;;;;18.00;9.30;;;;;;;7.85;67.72;93979.25;5048379;28;20112;-68
2020/12/05 08:15:20;;;;;;;15.50;8.88;;;;;;;7.90;67.35;93976.50;5048481;28;20025;-69
2020/12/05 08:17:46;;;;;;;16.15;9.38;;;;;;;7.98;66.98;93969.75;5048592;28;20028;-69
2020/12/05 08:20:14;;;;;;;14.45;9.00;;;;;;;8.03;66.86;93981.03;5049917;28;20048;-69
2020/12/05 08:22:39;;;;;;;16.73;9.68;;;;;;;8.10;66.56;93990.47;5049800;28;20025;-69
2020/12/05 08:25:05;;;;;;;17.13;8.50;;;;;;;8.15;66.65;93995.72;5049811;28;20043;-68
2020/12/05 08:27:32;;;;;;;15.57;9.85;;;;;;;8.22;66.20;93998.75;5049693;28;20488;-68
2020/12/05 08:29:58;;;;;;;20.60;9.30;;;;;;;8.28;66.11;93999.44;5048546;28;20029;-68
2020/12/05 08:32:25;;;;;;;16.17;9.23;;;;;;;8.34;65.99;94011.56;5049820;28;20032;-68
2020/12/05 08:35:07;;;;;;;14.65;7.65;;;;;;;8.38;65.68;94004.56;5049750;28;20039;-68
2020/12/05 08:37:34;;;;;;;14.48;8.57;;;;;;;8.42;65.49;94014.31;5048125;28;20504;-68
2020/12/05 08:40:00;;;;;;;17.63;10.07;;;;;;;8.48;65.49;94007.06;5048561;28;20036;-68
2020/12/05 08:42:26;;;;;;;17.80;9.85;;;;;;;8.53;65.25;94014.13;5049684;28;20099;-69
2020/12/05 08:44:52;;;;;;;19.67;10.35;;;;;;;8.56;65.17;94014.34;5049742;28;20033;-68
2020/12/05 08:47:18;;;;;;;16.98;8.50;;;;;;;8.60;64.82;94025.94;5055712;28;20089;-69
2020/12/05 08:49:48;;;;;;;14.45;8.93;;;;;;;8.63;64.73;94016.59;5069511;28;20468;-68
2020/12/05 08:52:15;;;;;;;16.98;8.98;;;;;;;8.68;64.62;94016.50;5061606;28;20198;-68
2020/12/05 08:54:49;;;;;;;15.30;8.38;;;;;;;8.71;64.25;94018.56;5050369;28;20114;-68
2020/12/05 08:57:16;;;;;;;16.73;9.38;;;;;;;8.73;64.39;94010.28;5053138;28;20025;-69
2020/12/05 08:59:43;;;;;;;20.02;10.55;;;;;;;8.77;64.63;94009.41;5051618;28;20102;-69
2020/12/05 09:02:09;;;;;;;20.02;9.57;;;;;;;8.80;64.49;94006.16;5051859;28;20025;-68
2020/12/05 09:04:36;;;;;;;17.70;9.75;;;;;;;8.79;63.95;94017.88;5052723;28;20052;-68
2020/12/05 09:07:09;;;;;;;18.75;10.30;;;;;;;8.82;63.84;94022.59;5051787;28;20055;-68
2020/12/05 09:09:35;;;;;;;18.45;10.07;;;;;;;8.84;63.85;94014.31;5051540;28;20492;-69
2020/12/05 09:12:09;;;;;;;22.08;10.55;;;;;;;8.85;64.06;94015.88;5056585;28;20032;-68
2020/12/05 09:14:35;;;;;;;18.25;11.00;;;;;;;8.90;63.80;94021.09;5071680;28;20038;-68
2020/12/05 09:17:01;;;;;;;18.85;10.75;;;;;;;8.95;63.94;94014.88;5071396;28;20028;-69
2020/12/05 09:19:31;;;;;;;15.43;9.52;;;;;;;9.00;63.57;94018.22;5072837;28;20028;-68
2020/12/05 09:21:57;;;;;;;17.17;9.57;;;;;;;9.10;63.69;94017.22;5071254;28;20020;-68
2020/12/05 09:24:23;;;;;;;16.35;9.13;;;;;;;9.17;63.48;94022.91;5072867;28;20033;-68
2020/12/05 09:27:00;;;;;;;15.75;9.45;;;;;;;9.23;63.17;94020.91;5072495;28;20021;-68
2020/12/05 09:29:26;;;;;;;19.08;10.75;;;;;;;9.33;63.22;94026.00;5071427;28;20030;-68
2020/12/05 09:31:53;;;;;;;16.98;9.80;;;;;;;9.42;63.05;94024.22;5073153;28;20408;-68
2020/12/05 09:34:36;;;;;;;19.05;10.43;;;;;;;9.54;62.77;94021.00;5071437;28;20445;-68
2020/12/05 09:37:12;;;;;;;18.38;9.73;;;;;;;9.67;61.90;94021.25;5072539;28;20024;-68
2020/12/05 09:39:38;;;;;;;15.55;9.52;;;;;;;9.76;62.00;94028.19;5072507;28;20016;-68
2020/12/05 09:42:04;;;;;;;15.45;9.40;;;;;;;9.86;61.67;94018.41;5072244;28;20025;-68
2020/12/05 09:44:29;;;;;;;15.57;9.07;;;;;;;9.95;60.90;94016.56;5071107;28;20043;-68
2020/12/05 09:46:55;;;;;;;15.43;9.07;;;;;;;10.06;60.46;94022.44;5072438;28;20024;-68
2020/12/05 09:49:20;;;;;;;18.35;8.77;;;;;;;10.08;60.70;94018.38;5070646;28;20042;-68
2020/12/05 09:51:46;;;;;;;18.25;9.38;;;;;;;10.10;60.72;94008.22;5072196;28;20044;-68
2020/12/05 09:54:11;;;;;;;14.73;9.00;;;;;;;10.17;60.41;94005.88;5071903;28;20054;-68
2020/12/05 09:56:37;;;;;;;14.98;9.30;;;;;;;10.23;60.26;94011.88;5070976;28;20115;-68
2020/12/05 09:59:02;;;;;;;14.77;8.95;;;;;;;10.30;60.33;94006.13;5071962;28;20107;-68
2020/12/05 10:01:29;;;;;;;14.95;9.40;;;;;;;10.37;59.64;94011.81;5071020;28;20025;-68
2020/12/05 10:03:54;;;;;;;17.58;10.90;;;;;;;10.41;59.90;94004.78;5071091;28;20157;-68
2020/12/05 10:06:20;;;;;;;15.73;9.80;;;;;;;10.47;60.22;94008.88;5070882;28;20028;-68
2020/12/05 10:08:48;;;;;;;14.82;9.35;;;;;;;10.60;59.67;94007.19;5072127;28;20043;-68
2020/12/05 10:11:14;;;;;;;18.27;9.93;;;;;;;10.70;59.55;93998.88;5063586;28;20043;-68
2020/12/05 10:13:39;;;;;;;15.38;9.25;;;;;;;10.79;59.33;94004.25;5051633;28;20032;-68
2020/12/05 10:16:04;;;;;;;15.05;9.25;;;;;;;10.85;58.87;94000.34;5050730;28;20521;-67
2020/12/05 10:18:30;;;;;;;16.85;9.15;;;;;;;10.86;58.67;94012.56;5050244;28;20111;-68
2020/12/05 10:20:55;;;;;;;15.82;8.65;;;;;;;10.87;58.72;94000.03;5052180;28;20055;-68
2020/12/05 10:23:21;;;;;;;15.02;8.13;;;;;;;10.88;58.71;94005.06;5050659;28;20033;-68
2020/12/05 10:25:46;;;;;;;16.70;7.93;;;;;;;10.84;58.71;94002.22;5051779;28;20025;-68
2020/12/05 10:28:12;;;;;;;14.82;8.02;;;;;;;10.83;58.70;93995.31;5050139;28;20031;-69
2020/12/05 10:30:37;;;;;;;15.98;8.52;;;;;;;10.80;58.75;93995.94;5050237;28;20025;-68
2020/12/05 10:33:02;;;;;;;16.63;8.95;;;;;;;10.81;58.83;93986.06;5059644;28;20056;-68
2020/12/05 10:35:28;;;;;;;17.00;8.32;;;;;;;10.83;58.67;93989.22;5070949;28;20488;-68
2020/12/05 10:37:53;;;;;;;13.45;8.23;;;;;;;10.82;58.77;93992.97;5071214;28;20020;-69
2020/12/05 10:40:19;;;;;;;13.13;7.80;;;;;;;10.77;59.15;93987.78;5071065;28;20115;-68
2020/12/05 10:42:44;;;;;;;11.80;7.65;;;;;;;10.78;59.03;93989.34;5069589;28;20044;-68
2020/12/05 10:45:09;;;;;;;14.13;8.40;;;;;;;10.79;58.93;93988.28;5070956;28;20043;-68
2020/12/05 10:47:35;;;;;;;16.88;9.20;;;;;;;10.77;58.82;93983.25;5070706;28;20024;-68
2020/12/05 10:50:00;;;;;;;14.70;9.05;;;;;;;10.70;59.26;93987.44;5069886;28;20024;-68
2020/12/05 10:52:26;;;;;;;15.68;8.65;;;;;;;10.72;59.18;93982.59;5070944;28;20048;-68
2020/12/05 10:54:52;;;;;;;21.25;9.65;;;;;;;10.72;59.44;93983.38;5069399;28;20032;-68
2020/12/05 10:57:17;;;;;;;14.05;8.95;;;;;;;10.71;59.73;93981.81;5069306;28;20499;-68
2020/12/05 10:59:43;;;;;;;18.05;10.57;;;;;;;10.74;59.23;93978.50;5069215;28;20078;-68
2020/12/05 11:02:09;;;;;;;14.27;8.48;;;;;;;10.75;59.07;93982.00;5069649;28;20385;-68
2020/12/05 11:04:34;;;;;;;13.00;7.78;;;;;;;10.73;58.67;93978.84;5070477;28;20020;-68
2020/12/05 11:07:00;;;;;;;15.55;8.45;;;;;;;10.68;59.19;93978.97;5070775;28;20415;-68
2020/12/05 11:09:25;;;;;;;16.65;8.88;;;;;;;10.62;59.25;93973.00;5069190;28;20024;-68
2020/12/05 11:11:51;;;;;;;13.52;8.95;;;;;;;10.63;59.44;93975.38;5067981;28;20031;-68
2020/12/05 11:14:16;;;;;;;18.05;9.50;;;;;;;10.62;59.66;93973.81;5047949;28;20476;-68
2020/12/05 11:16:41;;;;;;;15.57;9.18;;;;;;;10.66;59.85;93973.16;5049083;28;20029;-68
2020/12/05 11:19:07;;;;;;;13.70;8.95;;;;;;;10.63;59.82;93959.38;5049792;28;20505;-68
2020/12/05 11:21:32;;;;;;;15.93;10.07;;;;;;;10.69;59.74;93972.56;5048515;28;20044;-68
2020/12/05 11:23:58;;;;;;;19.30;10.23;;;;;;;10.75;59.71;93964.09;5054659;28;20043;-67
2020/12/05 11:26:23;;;;;;;18.13;9.88;;;;;;;10.81;59.90;93959.41;5069818;28;20395;-68
2020/12/05 11:28:50;;;;;;;17.45;10.15;;;;;;;10.81;59.11;93951.41;5069790;28;20035;-68